Szolnok, Hungary
Current Conditions -  °F | °C
As of 12:15 PM on Friday 31 Oct 2014 (Local Time) from LHSN Reporting Station
Clear Clear  
Wind Chill: 45°   Ceiling: Unl
Heat Index: 48°   Visibility: 4mi
Dew Point: 41°   Wind: 7mph
Humidity: 76%   Direction: 90°E
Pressure: 30.33"   Gusts: NA
Location:  47.18°N, 20.18°E
Report Text: LHSN 311015Z 09003MPS 7000 NSC 09/05 Q1027 NOSIG RMK WHT
Loading
Personal Weather Stations






























Interactive Weather Map
Tropical Storm Tracking
New forecast layout! Learn more

10-Day Weather Forecast

Advertisements
Track Severe Weather on mobile